Time;durP1;ratioP1;P1;durP2;ratioP2;P2;SDS_P1;SDS_P2;PMS_P1;PMS_P2;Temp;Humidity;BMP_temperature;BMP_pressure;BME280_temperature;BME280_humidity;BME280_pressure;Samples;Min_cycle;Max_cycle;Signal;HPM_P1;HPM_P2
2021/01/04 00:01:03;;;;;;;36.17;20.70;;;3.20;99.90;;;;;;4931108;28;20877;-87
2021/01/04 00:03:39;;;;;;;36.73;21.40;;;3.20;99.90;;;;;;4947672;28;20877;-90
2021/01/04 00:06:32;;;;;;;35.17;20.90;;;3.10;99.90;;;;;;4929974;28;20446;-87
2021/01/04 00:09:20;;;;;;;35.97;21.20;;;3.20;99.90;;;;;;4930836;28;20434;-87
2021/01/04 00:11:54;;;;;;;39.10;21.67;;;3.20;99.90;;;;;;4945823;28;20477;-88
2021/01/04 00:14:40;;;;;;;33.83;20.17;;;3.20;99.90;;;;;;4930928;28;21025;-86
2021/01/04 00:17:27;;;;;;;40.00;21.80;;;3.20;99.90;;;;;;4935098;28;20446;-89
2021/01/04 00:20:15;;;;;;;37.73;21.23;;;3.10;99.90;;;;;;4948648;28;20438;-88
2021/01/04 00:23:05;;;;;;;34.70;18.77;;;3.10;99.90;;;;;;4895603;28;20458;-88
2021/01/04 00:25:57;;;;;;;37.00;20.93;;;3.10;99.90;;;;;;4940298;28;20446;-87
2021/01/04 00:28:27;;;;;;;33.37;19.10;;;3.10;99.90;;;;;;4951385;28;20465;-85
2021/01/04 00:31:16;;;;;;;38.77;21.07;;;3.10;99.90;;;;;;4950318;28;20490;-87
2021/01/04 00:34:03;;;;;;;36.63;20.90;;;3.10;99.90;;;;;;4948852;28;20464;-89
2021/01/04 00:36:32;;;;;;;35.20;20.60;;;3.10;99.90;;;;;;4933525;28;20435;-88
2021/01/04 00:39:36;;;;;;;32.50;18.50;;;3.10;99.90;;;;;;4950474;28;20960;-87
2021/01/04 00:42:20;;;;;;;31.53;20.93;;;3.10;99.90;;;;;;4932755;28;20443;-87
2021/01/04 00:44:58;;;;;;;33.43;20.80;;;3.10;99.90;;;;;;4949631;28;20795;-88
2021/01/04 00:47:52;;;;;;;37.80;21.13;;;3.10;99.90;;;;;;4934011;28;20443;-89
2021/01/04 00:50:32;;;;;;;36.53;20.97;;;3.00;99.90;;;;;;4934515;28;20468;-88
2021/01/04 00:53:10;;;;;;;40.00;19.00;;;3.10;99.90;;;;;;4933520;28;20529;-89
2021/01/04 00:55:54;;;;;;;37.17;19.80;;;3.10;99.90;;;;;;4933132;28;20443;-87
2021/01/04 00:58:45;;;;;;;33.30;19.20;;;3.10;99.90;;;;;;4932503;28;20533;-86
2021/01/04 01:01:32;;;;;;;34.30;18.70;;;3.10;99.90;;;;;;4947310;28;20466;-87
2021/01/04 01:04:12;;;;;;;37.97;19.60;;;3.00;99.90;;;;;;4948314;28;20545;-89
2021/01/04 01:06:55;;;;;;;33.43;18.80;;;3.10;99.90;;;;;;4932983;28;20794;-85
2021/01/04 01:09:24;;;;;;;37.47;21.77;;;3.10;99.90;;;;;;4953704;28;20477;-86
2021/01/04 01:11:59;;;;;;;33.00;20.03;;;3.00;99.90;;;;;;4933548;28;20490;-87
2021/01/04 01:14:35;;;;;;;34.43;19.63;;;2.90;99.90;;;;;;4932637;28;20522;-85
2021/01/04 01:17:30;;;;;;;34.10;19.73;;;2.90;99.90;;;;;;4949006;28;20434;-88
2021/01/04 01:19:59;;;;;;;34.77;18.60;;;2.80;99.90;;;;;;4928876;28;20485;-86
2021/01/04 01:22:34;;;;;;;34.07;21.17;;;2.60;99.90;;;;;;4932067;28;20446;-87
2021/01/04 01:25:15;;;;;;;33.93;19.93;;;2.60;99.90;;;;;;4950077;28;20478;-87
2021/01/04 01:28:25;;;;;;;34.20;18.17;;;2.60;99.90;;;;;;4954095;28;20438;-86
2021/01/04 01:31:07;;;;;;;38.53;20.27;;;2.70;99.90;;;;;;4953242;28;20481;-86
2021/01/04 01:34:00;;;;;;;42.93;20.93;;;2.60;99.90;;;;;;4970392;28;20453;-89
2021/01/04 01:36:43;;;;;;;34.03;20.70;;;2.50;99.90;;;;;;4957255;28;20423;-90
2021/01/04 01:39:19;;;;;;;40.10;18.97;;;2.50;99.90;;;;;;4970904;28;20453;-89
2021/01/04 01:42:23;;;;;;;37.93;22.13;;;2.50;99.90;;;;;;4955211;28;20464;-87
2021/01/04 01:45:01;;;;;;;41.67;22.17;;;2.50;99.90;;;;;;4955468;28;20565;-88
2021/01/04 01:48:04;;;;;;;30.83;19.33;;;2.50;99.90;;;;;;4955160;28;20422;-90
2021/01/04 01:50:35;;;;;;;36.40;19.07;;;2.50;99.90;;;;;;4971346;28;20469;-88
2021/01/04 01:53:23;;;;;;;36.17;21.37;;;2.60;99.90;;;;;;4950021;28;20509;-87
2021/01/04 01:56:07;;;;;;;44.50;21.17;;;2.60;99.90;;;;;;4953063;28;20429;-87
2021/01/04 01:58:56;;;;;;;40.37;21.10;;;2.60;99.90;;;;;;4953825;28;20440;-89
2021/01/04 02:01:43;;;;;;;35.53;19.53;;;2.70;99.90;;;;;;4943685;28;20990;-89
2021/01/04 02:04:45;;;;;;;39.23;21.10;;;2.60;99.90;;;;;;4931673;28;21098;-87
2021/01/04 02:07:20;;;;;;;42.23;20.40;;;2.50;99.90;;;;;;4929120;28;20437;-86
2021/01/04 02:09:54;;;;;;;39.37;20.07;;;2.50;99.90;;;;;;4929592;28;20434;-89
2021/01/04 02:12:54;;;;;;;42.60;19.83;;;2.50;99.90;;;;;;4933014;28;20501;-88
2021/01/04 02:16:04;;;;;;;38.77;20.73;;;2.60;99.90;;;;;;4927966;28;20438;-84
2021/01/04 02:19:10;;;;;;;45.30;21.00;;;2.60;99.90;;;;;;4865570;29;20460;-90
2021/01/04 02:22:13;;;;;;;37.70;20.33;;;2.60;99.90;;;;;;4926984;28;20510;-85
2021/01/04 02:24:39;;;;;;;36.07;19.77;;;2.50;99.90;;;;;;4928179;28;20431;-88
2021/01/04 02:27:30;;;;;;;37.07;18.90;;;2.40;99.90;;;;;;4944702;28;20462;-86
2021/01/04 02:29:56;;;;;;;40.57;19.90;;;2.40;99.90;;;;;;4926441;28;20320;-84
2021/01/04 02:32:22;;;;;;;39.00;21.87;;;2.50;99.90;;;;;;4926053;28;20592;-85
2021/01/04 02:34:54;;;;;;;41.23;22.40;;;2.60;99.90;;;;;;4928253;28;20461;-88
2021/01/04 02:37:22;;;;;;;42.47;21.27;;;2.60;99.90;;;;;;4927164;28;20716;-88
2021/01/04 02:39:55;;;;;;;34.47;19.83;;;2.60;99.90;;;;;;4927392;28;20812;-89
2021/01/04 02:42:30;;;;;;;40.33;21.07;;;2.60;99.90;;;;;;4928104;28;21055;-88
2021/01/04 02:44:57;;;;;;;46.17;21.50;;;2.50;99.90;;;;;;4926753;28;20595;-88
2021/01/04 02:47:34;;;;;;;37.37;19.57;;;2.50;99.90;;;;;;4943470;28;20932;-87
2021/01/04 02:50:20;;;;;;;39.43;20.07;;;2.40;99.90;;;;;;4928055;28;20445;-87
2021/01/04 02:53:04;;;;;;;37.50;19.47;;;2.50;99.90;;;;;;4927708;28;20470;-88
2021/01/04 02:55:48;;;;;;;40.70;22.17;;;2.40;99.90;;;;;;4944204;28;20530;-88
2021/01/04 02:58:48;;;;;;;36.37;18.90;;;2.40;99.90;;;;;;4929808;28;20427;-87
2021/01/04 03:01:19;;;;;;;34.77;20.50;;;2.60;99.90;;;;;;4944371;28;20449;-88
2021/01/04 03:03:47;;;;;;;32.33;19.43;;;2.60;99.90;;;;;;4928680;28;20461;-87
2021/01/04 03:06:25;;;;;;;46.50;22.50;;;2.50;99.90;;;;;;4943359;28;20435;-88
2021/01/04 03:08:51;;;;;;;40.17;20.13;;;2.50;99.90;;;;;;4944136;28;20983;-88
2021/01/04 03:11:21;;;;;;;42.20;21.27;;;2.50;99.90;;;;;;4928141;28;20519;-88
2021/01/04 03:14:23;;;;;;;39.30;21.07;;;2.40;99.90;;;;;;4927034;28;20233;-87
2021/01/04 03:17:07;;;;;;;36.37;20.40;;;2.40;99.90;;;;;;4944309;28;20819;-86
2021/01/04 03:19:36;;;;;;;37.40;19.50;;;2.40;99.90;;;;;;4928162;28;20949;-87
2021/01/04 03:22:09;;;;;;;39.43;21.07;;;2.40;99.90;;;;;;4927913;28;20431;-84
2021/01/04 03:24:35;;;;;;;38.67;20.27;;;2.30;99.90;;;;;;4945217;28;20506;-86
2021/01/04 03:27:07;;;;;;;42.17;21.27;;;2.30;99.90;;;;;;4934719;28;20496;-88
2021/01/04 03:29:33;;;;;;;37.87;19.57;;;2.20;99.90;;;;;;4944932;28;20949;-83
2021/01/04 03:31:59;;;;;;;35.47;21.57;;;2.20;99.90;;;;;;4927966;28;20484;-86
2021/01/04 03:34:24;;;;;;;39.93;20.90;;;2.20;99.90;;;;;;4942154;28;20190;-87
2021/01/04 03:36:50;;;;;;;33.10;19.03;;;2.20;99.90;;;;;;4928366;28;20229;-86
2021/01/04 03:39:16;;;;;;;43.07;21.60;;;2.30;99.90;;;;;;4927839;28;20677;-88
2021/01/04 03:41:42;;;;;;;42.07;21.47;;;2.30;99.90;;;;;;4927919;28;20194;-86
2021/01/04 03:44:08;;;;;;;39.30;22.07;;;2.30;99.90;;;;;;4944443;28;20553;-86
2021/01/04 03:46:33;;;;;;;42.53;20.30;;;2.20;99.90;;;;;;4926814;28;20282;-88
2021/01/04 03:49:02;;;;;;;45.17;22.87;;;2.30;99.90;;;;;;4942492;28;20671;-88
2021/01/04 03:51:27;;;;;;;35.97;20.80;;;2.30;99.90;;;;;;4926001;28;20225;-87
2021/01/04 03:53:53;;;;;;;41.33;21.87;;;2.30;99.90;;;;;;4909971;28;20465;-88
2021/01/04 03:56:22;;;;;;;35.50;19.77;;;2.40;99.90;;;;;;4910896;28;20187;-87
2021/01/04 03:58:47;;;;;;;40.80;21.40;;;2.40;99.90;;;;;;4945124;28;20250;-88
2021/01/04 04:01:13;;;;;;;46.20;22.33;;;2.40;99.90;;;;;;4945967;28;20433;-84
2021/01/04 04:03:39;;;;;;;44.90;22.47;;;2.30;99.90;;;;;;4925758;28;20229;-85
2021/01/04 04:06:08;;;;;;;44.10;22.70;;;2.30;99.90;;;;;;4929341;28;20217;-89
2021/01/04 04:08:34;;;;;;;48.50;22.80;;;2.30;99.90;;;;;;4945400;28;20270;-87
2021/01/04 04:10:59;;;;;;;43.03;21.33;;;2.30;99.90;;;;;;4927441;28;20500;-88
2021/01/04 04:13:25;;;;;;;43.97;20.50;;;2.30;99.90;;;;;;4928353;28;20214;-86
2021/01/04 04:15:51;;;;;;;44.07;22.43;;;2.30;99.90;;;;;;4927865;28;20686;-87
2021/01/04 04:18:16;;;;;;;41.97;21.63;;;2.30;99.90;;;;;;4925955;28;20197;-88
2021/01/04 04:20:42;;;;;;;40.97;20.53;;;2.20;99.90;;;;;;4944049;28;22198;-87
2021/01/04 04:23:07;;;;;;;39.00;21.60;;;2.20;99.90;;;;;;4927631;28;20700;-88
2021/01/04 04:25:33;;;;;;;41.67;23.37;;;2.20;99.90;;;;;;4913602;28;20277;-85
2021/01/04 04:27:59;;;;;;;45.20;21.37;;;2.20;99.90;;;;;;4928717;28;20224;-87
2021/01/04 04:30:25;;;;;;;41.83;21.47;;;2.20;99.90;;;;;;4927676;28;20308;-85
2021/01/04 04:32:59;;;;;;;41.17;21.10;;;2.20;99.90;;;;;;4926154;28;20260;-88
2021/01/04 04:35:26;;;;;;;45.23;21.27;;;2.30;99.90;;;;;;4945208;28;20771;-88
2021/01/04 04:38:05;;;;;;;36.73;20.03;;;2.30;99.90;;;;;;4944384;28;20437;-89
2021/01/04 04:40:34;;;;;;;45.20;21.93;;;2.30;99.90;;;;;;4941336;28;20569;-87
2021/01/04 04:43:35;;;;;;;41.20;21.30;;;2.20;99.90;;;;;;4945621;28;20509;-87
2021/01/04 04:46:07;;;;;;;37.03;21.13;;;2.30;99.90;;;;;;4943436;28;20452;-85
2021/01/04 04:48:54;;;;;;;37.07;21.33;;;2.40;99.90;;;;;;4943321;28;20437;-88
2021/01/04 04:51:45;;;;;;;38.27;21.33;;;2.40;99.90;;;;;;4928045;28;20470;-85
2021/01/04 04:54:36;;;;;;;40.03;21.97;;;2.30;99.90;;;;;;4929218;28;20542;-85
2021/01/04 04:57:30;;;;;;;40.60;21.90;;;2.30;99.90;;;;;;4927638;28;20915;-87
2021/01/04 05:00:14;;;;;;;34.07;18.90;;;2.30;99.90;;;;;;4927991;28;20446;-87
2021/01/04 05:03:08;;;;;;;37.43;20.37;;;2.20;99.90;;;;;;4932481;28;21023;-88
2021/01/04 05:05:53;;;;;;;37.70;21.83;;;2.20;99.90;;;;;;4929571;28;20453;-88
2021/01/04 05:08:52;;;;;;;35.20;19.03;;;2.30;99.90;;;;;;4950640;28;20476;-86
2021/01/04 05:11:23;;;;;;;39.90;22.43;;;2.30;99.90;;;;;;4948247;28;20458;-85
2021/01/04 05:13:52;;;;;;;41.03;20.63;;;2.20;99.90;;;;;;4947155;28;20459;-86
2021/01/04 05:16:45;;;;;;;47.13;23.87;;;2.20;99.90;;;;;;4929679;28;20960;-86
2021/01/04 05:19:19;;;;;;;32.73;17.67;;;2.20;99.90;;;;;;4928083;28;21053;-87
2021/01/04 05:22:07;;;;;;;38.30;19.80;;;2.00;99.90;;;;;;4943649;28;20606;-86
2021/01/04 05:24:49;;;;;;;40.70;20.27;;;2.00;99.90;;;;;;4946066;28;20860;-86
2021/01/04 05:27:24;;;;;;;44.53;21.40;;;2.10;99.90;;;;;;4931908;28;20473;-88
2021/01/04 05:30:11;;;;;;;43.73;19.70;;;2.00;99.90;;;;;;4944643;28;20979;-89
2021/01/04 05:33:07;;;;;;;35.17;19.60;;;2.10;99.90;;;;;;4932730;28;20574;-85
2021/01/04 05:35:35;;;;;;;35.43;19.80;;;2.10;99.90;;;;;;4941438;28;20853;-86
2021/01/04 05:38:20;;;;;;;37.40;19.80;;;2.10;99.90;;;;;;4931508;28;20442;-87
2021/01/04 05:41:10;;;;;;;44.53;22.17;;;2.20;99.90;;;;;;4947723;28;20453;-87
2021/01/04 05:44:05;;;;;;;39.10;20.20;;;2.30;99.90;;;;;;4929066;28;20500;-86
2021/01/04 05:46:43;;;;;;;40.03;20.43;;;2.20;99.90;;;;;;4915730;28;20460;-88
2021/01/04 05:49:12;;;;;;;37.93;19.60;;;2.20;99.90;;;;;;4947811;28;20452;-86
2021/01/04 05:51:48;;;;;;;41.40;18.50;;;2.20;99.90;;;;;;4950042;28;20458;-88
2021/01/04 05:54:28;;;;;;;42.47;20.83;;;2.20;99.90;;;;;;4940599;28;20776;-87
2021/01/04 05:57:16;;;;;;;45.70;20.67;;;2.10;99.90;;;;;;4945980;28;20455;-87
2021/01/04 05:59:50;;;;;;;34.07;18.30;;;2.10;99.90;;;;;;4931651;28;20804;-87
2021/01/04 06:02:33;;;;;;;37.50;19.77;;;2.10;99.90;;;;;;4947248;28;20469;-86
2021/01/04 06:05:16;;;;;;;39.67;19.20;;;2.10;99.90;;;;;;4946006;28;20431;-88
2021/01/04 06:07:45;;;;;;;42.67;19.97;;;2.10;99.90;;;;;;4947420;28;21164;-87
2021/01/04 06:10:32;;;;;;;37.50;18.37;;;2.20;99.90;;;;;;4945175;28;20448;-88
2021/01/04 06:12:58;;;;;;;46.53;21.23;;;2.10;99.90;;;;;;4945707;28;20454;-87
2021/01/04 06:15:32;;;;;;;40.40;20.70;;;2.10;99.90;;;;;;4931434;28;20429;-86
2021/01/04 06:18:04;;;;;;;44.57;20.90;;;2.10;99.90;;;;;;4929426;28;20843;-88
2021/01/04 06:20:39;;;;;;;38.50;22.07;;;2.20;99.90;;;;;;4915361;28;20446;-88
2021/01/04 06:23:12;;;;;;;41.63;20.17;;;2.20;99.90;;;;;;4930563;28;20655;-86
2021/01/04 06:25:38;;;;;;;44.07;22.13;;;2.20;99.90;;;;;;4955780;28;20572;-90
2021/01/04 06:28:05;;;;;;;30.53;17.30;;;2.20;99.90;;;;;;4954608;28;20450;-89
2021/01/04 06:30:40;;;;;;;33.63;18.63;;;2.10;99.90;;;;;;4948362;28;20453;-88
2021/01/04 06:33:11;;;;;;;44.17;22.27;;;2.20;99.90;;;;;;4928349;28;20478;-89
2021/01/04 06:35:37;;;;;;;28.03;16.00;;;2.10;99.90;;;;;;4945876;28;20442;-87
2021/01/04 06:38:30;;;;;;;39.87;18.10;;;2.00;99.90;;;;;;4928111;28;20463;-87
2021/01/04 06:40:57;;;;;;;35.93;18.30;;;2.10;99.90;;;;;;4935530;28;20196;-88
2021/01/04 06:43:30;;;;;;;33.37;17.60;;;2.10;99.90;;;;;;4944438;28;20461;-87
2021/01/04 06:46:20;;;;;;;34.90;18.43;;;2.10;99.90;;;;;;4947509;28;20850;-88
2021/01/04 06:49:01;;;;;;;37.90;17.67;;;2.10;99.90;;;;;;4926856;28;20561;-87
2021/01/04 06:51:43;;;;;;;35.80;19.57;;;2.10;99.90;;;;;;4943732;28;20493;-88
2021/01/04 06:54:50;;;;;;;39.93;18.03;;;2.10;99.90;;;;;;4941046;28;20473;-85
2021/01/04 06:57:24;;;;;;;33.97;18.37;;;2.20;99.90;;;;;;4927084;28;20434;-87
2021/01/04 07:00:02;;;;;;;39.87;20.77;;;2.20;99.90;;;;;;4951581;28;20674;-88
2021/01/04 07:02:37;;;;;;;37.50;19.10;;;2.10;99.90;;;;;;4968153;28;20541;-88
2021/01/04 07:05:41;;;;;;;36.37;18.43;;;2.10;99.90;;;;;;4951830;28;20450;-86
2021/01/04 07:08:29;;;;;;;26.20;15.73;;;2.10;99.90;;;;;;4953608;28;20446;-87
2021/01/04 07:11:08;;;;;;;41.27;20.30;;;2.10;99.90;;;;;;4951771;28;20557;-86
2021/01/04 07:13:47;;;;;;;35.53;17.43;;;2.10;99.90;;;;;;4951191;28;20461;-87
2021/01/04 07:16:16;;;;;;;34.00;16.43;;;2.10;99.90;;;;;;4947950;28;20940;-89
2021/01/04 07:19:12;;;;;;;38.90;20.20;;;2.00;99.90;;;;;;4954316;28;20422;-86
2021/01/04 07:21:51;;;;;;;43.57;18.40;;;2.00;99.90;;;;;;4949379;28;20547;-87
2021/01/04 07:24:49;;;;;;;35.47;19.33;;;2.00;99.90;;;;;;4965629;28;20443;-85
2021/01/04 07:27:37;;;;;;;42.60;22.90;;;2.00;99.90;;;;;;4934030;28;20529;-88
2021/01/04 07:30:10;;;;;;;33.10;17.20;;;2.00;99.90;;;;;;4951537;28;20519;-86
2021/01/04 07:32:48;;;;;;;46.60;21.00;;;2.10;99.90;;;;;;4952737;28;20493;-86
2021/01/04 07:35:38;;;;;;;37.00;20.70;;;2.10;99.90;;;;;;4965481;28;20549;-86
2021/01/04 07:38:11;;;;;;;36.80;19.87;;;2.20;99.90;;;;;;4968897;28;20437;-88
2021/01/04 07:40:48;;;;;;;40.97;21.30;;;2.20;99.90;;;;;;4960599;28;20453;-86
2021/01/04 07:43:16;;;;;;;38.00;18.87;;;2.20;99.90;;;;;;4949593;28;20453;-88
2021/01/04 07:46:19;;;;;;;38.83;21.40;;;2.20;99.90;;;;;;4953688;28;20430;-87
2021/01/04 07:49:11;;;;;;;42.83;20.60;;;2.30;99.90;;;;;;4948388;28;20445;-86
2021/01/04 07:51:53;;;;;;;46.43;21.23;;;2.30;99.90;;;;;;4930663;28;20872;-87
2021/01/04 07:54:33;;;;;;;39.10;22.57;;;2.30;99.90;;;;;;4926167;28;20795;-86
2021/01/04 07:57:27;;;;;;;31.67;17.40;;;2.30;99.90;;;;;;4930519;28;20478;-87
2021/01/04 08:00:14;;;;;;;46.00;18.97;;;2.30;99.90;;;;;;4938639;28;20526;-89
2021/01/04 08:03:04;;;;;;;36.60;18.83;;;2.30;99.90;;;;;;4938303;28;20469;-87
2021/01/04 08:06:09;;;;;;;51.90;22.93;;;2.30;99.90;;;;;;4927120;28;20560;-88
2021/01/04 08:08:44;;;;;;;39.80;20.73;;;2.30;99.90;;;;;;4945955;28;21041;-88
2021/01/04 08:11:23;;;;;;;40.50;19.80;;;2.30;99.90;;;;;;4944688;28;20491;-86
2021/01/04 08:14:26;;;;;;;31.77;17.93;;;2.30;99.90;;;;;;4934004;28;20496;-89
2021/01/04 08:17:12;;;;;;;34.50;18.70;;;2.30;99.90;;;;;;4945042;28;20434;-87
2021/01/04 08:19:40;;;;;;;34.60;19.70;;;2.40;99.90;;;;;;4940743;28;20799;-86
2021/01/04 08:22:16;;;;;;;38.30;20.40;;;2.40;99.90;;;;;;4928108;28;20870;-85
2021/01/04 08:24:44;;;;;;;38.10;20.07;;;2.40;99.90;;;;;;4943968;28;21028;-87
2021/01/04 08:27:36;;;;;;;40.50;20.07;;;2.30;99.90;;;;;;4944398;28;20554;-85
2021/01/04 08:30:11;;;;;;;40.03;19.23;;;2.40;99.90;;;;;;4942818;28;20493;-85
2021/01/04 08:32:57;;;;;;;29.23;15.67;;;2.50;99.90;;;;;;4943814;28;20839;-89
2021/01/04 08:35:31;;;;;;;40.03;20.90;;;2.50;99.90;;;;;;4930555;28;20952;-88
2021/01/04 08:38:15;;;;;;;34.40;20.87;;;2.50;99.90;;;;;;4929729;28;20997;-89
2021/01/04 08:40:58;;;;;;;39.13;19.37;;;2.50;99.90;;;;;;4947219;28;20457;-88
2021/01/04 08:43:33;;;;;;;28.87;13.30;;;2.60;99.90;;;;;;4946736;28;20455;-87
2021/01/04 08:46:12;;;;;;;40.00;20.80;;;2.60;99.90;;;;;;4946381;28;21198;-87
2021/01/04 08:48:39;;;;;;;39.30;19.97;;;2.50;99.90;;;;;;4930146;28;20444;-84
2021/01/04 08:51:07;;;;;;;49.63;20.27;;;2.40;99.90;;;;;;4944390;28;20470;-88
2021/01/04 08:53:33;;;;;;;37.60;20.20;;;2.40;99.90;;;;;;4946434;28;20448;-87
2021/01/04 08:56:25;;;;;;;38.50;19.37;;;2.50;99.90;;;;;;4942249;28;20486;-88
2021/01/04 08:59:12;;;;;;;37.33;17.70;;;2.40;99.90;;;;;;4929923;28;20439;-87
2021/01/04 09:02:01;;;;;;;46.47;20.57;;;2.50;99.90;;;;;;4930378;28;21117;-85
2021/01/04 09:04:35;;;;;;;38.47;19.67;;;2.50;99.90;;;;;;4948089;28;20945;-86
2021/01/04 09:07:21;;;;;;;40.23;21.20;;;2.60;99.90;;;;;;4924998;28;20458;-85
2021/01/04 09:09:57;;;;;;;44.63;20.23;;;2.60;99.90;;;;;;4922238;28;20532;-84
2021/01/04 09:12:33;;;;;;;46.20;20.57;;;2.50;99.90;;;;;;4943798;28;20854;-86
2021/01/04 09:15:21;;;;;;;42.43;21.53;;;2.60;99.90;;;;;;4948385;28;20549;-83
2021/01/04 09:18:08;;;;;;;31.90;16.37;;;2.70;99.90;;;;;;4944754;28;20438;-88
2021/01/04 09:20:47;;;;;;;32.43;18.00;;;2.70;99.90;;;;;;4923309;28;20450;-85
2021/01/04 09:23:19;;;;;;;39.70;19.03;;;2.60;99.90;;;;;;4939724;28;20838;-89
2021/01/04 09:26:16;;;;;;;40.17;17.77;;;2.50;99.90;;;;;;4934326;28;21023;-87
2021/01/04 09:28:48;;;;;;;37.03;19.10;;;2.60;99.90;;;;;;4946221;28;20474;-82
2021/01/04 09:31:21;;;;;;;37.00;18.60;;;2.70;99.90;;;;;;4945970;28;20470;-85
2021/01/04 09:33:51;;;;;;;32.27;18.07;;;2.70;99.90;;;;;;4929967;28;20450;-88
2021/01/04 09:36:24;;;;;;;40.13;20.50;;;2.60;99.90;;;;;;4928219;28;20494;-86
2021/01/04 09:39:04;;;;;;;35.73;20.23;;;2.60;99.90;;;;;;4928908;28;20965;-89
2021/01/04 09:41:35;;;;;;;32.07;16.60;;;2.50;99.90;;;;;;4947531;28;20425;-86
2021/01/04 09:44:13;;;;;;;41.90;17.87;;;2.50;99.90;;;;;;4930077;28;20499;-87
2021/01/04 09:46:57;;;;;;;35.93;19.00;;;2.50;99.90;;;;;;4931633;28;20520;-87
2021/01/04 09:49:28;;;;;;;40.73;18.87;;;2.70;99.90;;;;;;4947206;28;20474;-84
2021/01/04 09:51:59;;;;;;;46.20;21.53;;;2.80;99.90;;;;;;4931132;28;20558;-86
2021/01/04 09:54:31;;;;;;;41.83;19.40;;;2.90;99.90;;;;;;4923090;28;20455;-87
2021/01/04 09:57:07;;;;;;;37.83;18.53;;;3.00;99.90;;;;;;4935616;28;21601;-86
2021/01/04 09:59:39;;;;;;;38.87;19.40;;;3.10;99.90;;;;;;4927594;28;20941;-88
2021/01/04 10:02:06;;;;;;;35.40;19.33;;;2.90;99.90;;;;;;4949624;28;20936;-87
2021/01/04 10:04:36;;;;;;;36.30;18.73;;;2.90;99.90;;;;;;4933453;28;20567;-87
2021/01/04 10:07:04;;;;;;;36.80;19.93;;;2.90;99.90;;;;;;4949207;28;20434;-86
2021/01/04 10:09:34;;;;;;;41.17;20.30;;;3.00;99.90;;;;;;4947676;28;20450;-86
2021/01/04 10:12:02;;;;;;;37.17;18.90;;;3.10;99.90;;;;;;4931774;28;20466;-84
2021/01/04 10:14:28;;;;;;;36.60;18.17;;;3.00;99.90;;;;;;4932152;28;20470;-86
2021/01/04 10:16:56;;;;;;;38.43;19.57;;;3.00;99.90;;;;;;4915026;28;22795;-86
2021/01/04 10:19:48;;;;;;;40.63;19.97;;;3.00;99.90;;;;;;4934438;28;20686;-85
2021/01/04 10:22:25;;;;;;;32.27;15.00;;;3.00;99.90;;;;;;4902328;28;20443;-87
2021/01/04 10:25:10;;;;;;;40.23;17.97;;;3.20;99.90;;;;;;4930447;28;20569;-86
2021/01/04 10:27:52;;;;;;;37.40;17.90;;;3.20;99.90;;;;;;4934950;28;20481;-85
2021/01/04 10:30:25;;;;;;;34.50;18.37;;;3.00;99.90;;;;;;4919561;28;20798;-85
2021/01/04 10:33:06;;;;;;;31.20;15.50;;;2.90;99.90;;;;;;4932383;28;20617;-85
2021/01/04 10:35:32;;;;;;;39.60;19.83;;;3.00;99.90;;;;;;4935096;28;20439;-84
2021/01/04 10:38:21;;;;;;;37.87;18.97;;;3.00;99.90;;;;;;4951143;28;20435;-86
2021/01/04 10:40:54;;;;;;;32.53;17.13;;;3.10;99.90;;;;;;4917840;28;20188;-85
2021/01/04 10:43:32;;;;;;;46.90;16.40;;;3.20;99.90;;;;;;4934481;28;20968;-84
2021/01/04 10:45:58;;;;;;;34.07;17.57;;;3.10;99.90;;;;;;4950904;28;20427;-86
2021/01/04 10:48:26;;;;;;;38.87;18.70;;;3.20;99.90;;;;;;4949615;28;20442;-87
2021/01/04 10:50:57;;;;;;;39.10;16.27;;;3.30;99.90;;;;;;4949436;28;20195;-90
2021/01/04 10:53:40;;;;;;;33.03;17.77;;;3.40;99.90;;;;;;4933597;28;20541;-85
2021/01/04 10:56:14;;;;;;;34.53;18.43;;;3.30;99.90;;;;;;4933473;28;20505;-84
2021/01/04 10:58:56;;;;;;;33.30;17.30;;;3.50;99.90;;;;;;4932937;28;20413;-88
2021/01/04 11:01:24;;;;;;;39.27;19.83;;;3.60;99.90;;;;;;4933959;28;20572;-88
2021/01/04 11:04:27;;;;;;;36.00;17.67;;;3.50;99.90;;;;;;4934015;28;20478;-84
2021/01/04 11:07:02;;;;;;;37.60;19.10;;;3.50;99.90;;;;;;4941602;28;20802;-83
2021/01/04 11:09:32;;;;;;;35.10;17.00;;;3.50;99.90;;;;;;4931090;28;20919;-86
2021/01/04 11:12:20;;;;;;;33.00;16.37;;;3.50;99.90;;;;;;4933145;28;20454;-85
2021/01/04 11:15:04;;;;;;;35.73;17.20;;;3.50;99.90;;;;;;4929018;28;20549;-88
2021/01/04 11:17:35;;;;;;;33.63;16.90;;;3.40;99.90;;;;;;4951130;28;20488;-85
2021/01/04 11:20:11;;;;;;;34.77;16.00;;;3.30;99.90;;;;;;4937840;28;20550;-85
2021/01/04 11:22:37;;;;;;;29.10;15.73;;;3.40;99.90;;;;;;4924260;28;20634;-85
2021/01/04 11:25:04;;;;;;;26.40;15.00;;;3.50;99.90;;;;;;4941208;28;20460;-88
2021/01/04 11:27:33;;;;;;;35.67;18.07;;;3.60;99.90;;;;;;4943909;28;20978;-87
2021/01/04 11:29:59;;;;;;;29.43;16.37;;;3.50;99.90;;;;;;4958024;28;20442;-86
2021/01/04 11:32:25;;;;;;;27.67;16.47;;;3.70;99.90;;;;;;4938019;28;21170;-87
2021/01/04 11:35:02;;;;;;;29.37;17.47;;;3.80;99.90;;;;;;4920964;28;20275;-89
2021/01/04 11:37:29;;;;;;;32.57;16.83;;;3.60;99.90;;;;;;4937321;28;20203;-88
2021/01/04 11:40:00;;;;;;;33.93;16.17;;;3.60;99.90;;;;;;4933708;28;20455;-88
2021/01/04 11:42:26;;;;;;;39.57;18.87;;;3.60;99.90;;;;;;4927118;28;20462;-86
2021/01/04 11:44:52;;;;;;;38.93;18.20;;;3.80;99.90;;;;;;4939136;29;20533;-86
2021/01/04 11:47:18;;;;;;;28.87;16.23;;;3.80;99.90;;;;;;4960251;28;20201;-87
2021/01/04 11:49:57;;;;;;;33.73;17.93;;;3.70;99.90;;;;;;4936264;28;20196;-85
2021/01/04 11:52:22;;;;;;;33.70;15.70;;;3.50;99.90;;;;;;4939774;28;21030;-85
2021/01/04 11:54:58;;;;;;;23.20;10.10;;;3.40;99.90;;;;;;4955116;28;20458;-85
2021/01/04 11:57:23;;;;;;;30.13;16.20;;;3.40;99.90;;;;;;4935167;28;20570;-86
2021/01/04 11:59:54;;;;;;;32.23;17.13;;;3.40;99.90;;;;;;4948742;28;20427;-85
2021/01/04 12:02:23;;;;;;;17.60;11.03;;;3.40;99.90;;;;;;4932939;28;20211;-85
2021/01/04 12:04:59;;;;;;;25.67;15.20;;;3.30;99.90;;;;;;4936692;28;20427;-87
2021/01/04 12:07:37;;;;;;;32.17;15.30;;;3.20;99.90;;;;;;4941580;29;20426;-88
2021/01/04 12:10:12;;;;;;;21.30;11.63;;;3.20;99.90;;;;;;4962349;28;20473;-87
2021/01/04 12:12:44;;;;;;;22.03;12.57;;;3.20;99.90;;;;;;4947440;28;20505;-86
2021/01/04 12:15:10;;;;;;;30.53;15.53;;;3.20;99.90;;;;;;4960841;28;20505;-87
2021/01/04 12:17:36;;;;;;;25.23;13.83;;;3.20;99.90;;;;;;4942289;28;20434;-86
2021/01/04 12:20:06;;;;;;;26.03;14.40;;;3.40;99.90;;;;;;4944655;28;20469;-88
2021/01/04 12:22:32;;;;;;;28.00;14.37;;;3.40;99.90;;;;;;4957355;28;20462;-86
2021/01/04 12:25:01;;;;;;;29.87;15.77;;;3.30;99.90;;;;;;4948389;28;20470;-87
2021/01/04 12:27:27;;;;;;;32.63;18.17;;;3.40;99.90;;;;;;4940793;28;20466;-88
2021/01/04 12:30:01;;;;;;;27.50;16.10;;;3.40;99.90;;;;;;4958630;28;20433;-88
2021/01/04 12:32:41;;;;;;;35.17;18.50;;;3.60;99.90;;;;;;4944028;23;20318;-86
2021/01/04 12:35:16;;;;;;;28.20;16.70;;;3.70;99.90;;;;;;4938311;29;20435;-84
2021/01/04 12:38:08;;;;;;;35.30;17.23;;;3.60;99.90;;;;;;4936810;29;20457;-87
2021/01/04 12:40:42;;;;;;;33.30;18.00;;;3.60;99.90;;;;;;4912814;29;20479;-84
2021/01/04 12:43:08;;;;;;;29.17;16.73;;;3.60;99.90;;;;;;4923646;29;20459;-86
2021/01/04 12:45:39;;;;;;;27.70;15.13;;;3.50;99.90;;;;;;4938416;29;20458;-87
2021/01/04 12:48:05;;;;;;;30.23;15.33;;;3.40;99.90;;;;;;4924645;29;20184;-86
2021/01/04 12:50:31;;;;;;;22.63;12.53;;;3.30;99.90;;;;;;4938987;29;20446;-86
2021/01/04 12:52:56;;;;;;;24.80;15.83;;;3.30;99.90;;;;;;4921871;29;21034;-89
2021/01/04 12:55:23;;;;;;;17.77;11.27;;;3.20;99.90;;;;;;4936840;28;20716;-85
2021/01/04 12:57:49;;;;;;;32.03;16.07;;;3.20;99.90;;;;;;4921864;29;20195;-88
2021/01/04 13:00:22;;;;;;;23.77;12.03;;;3.30;99.90;;;;;;4937307;29;20471;-85
2021/01/04 13:02:53;;;;;;;21.93;12.63;;;3.10;99.90;;;;;;4936432;29;20452;-86
2021/01/04 13:05:37;;;;;;;20.80;11.30;;;3.00;99.90;;;;;;4951331;28;20427;-86
2021/01/04 13:08:05;;;;;;;29.47;15.80;;;3.00;99.90;;;;;;4938005;29;20461;-88
2021/01/04 13:10:39;;;;;;;27.90;17.03;;;3.10;99.90;;;;;;4921822;29;20442;-87
2021/01/04 13:13:13;;;;;;;29.97;15.20;;;3.10;99.90;;;;;;4937279;29;20469;-88
2021/01/04 13:15:40;;;;;;;26.10;13.87;;;3.20;99.90;;;;;;4935251;29;20527;-88
2021/01/04 13:18:15;;;;;;;32.73;14.40;;;3.10;99.90;;;;;;4935664;29;20467;-88
2021/01/04 13:20:41;;;;;;;34.00;18.27;;;3.10;99.90;;;;;;4933071;29;20426;-88
2021/01/04 13:23:09;;;;;;;26.63;14.90;;;3.20;99.90;;;;;;4936622;29;20547;-85
2021/01/04 13:25:42;;;;;;;20.03;10.87;;;3.20;99.90;;;;;;4935095;29;20511;-85
2021/01/04 13:28:13;;;;;;;21.47;12.67;;;3.20;99.90;;;;;;4934852;29;20445;-85